sensor_id;sensor_type;location;lat;lon;timestamp;P1;durP1;ratioP1;P2;durP2;ratioP2
57155;SDS011;43023;59.928;10.682;2023-03-13T00:01:26;2.03;;;1.05;;
57155;SDS011;43023;59.928;10.682;2023-03-13T00:03:53;0.88;;;0.70;;
57155;SDS011;43023;59.928;10.682;2023-03-13T00:06:20;2.97;;;0.80;;
57155;SDS011;43023;59.928;10.682;2023-03-13T00:08:46;3.67;;;0.65;;
57155;SDS011;43023;59.928;10.682;2023-03-13T00:11:13;0.50;;;0.50;;
57155;SDS011;43023;59.928;10.682;2023-03-13T00:13:40;0.68;;;0.60;;
57155;SDS011;43023;59.928;10.682;2023-03-13T00:16:07;1.02;;;0.50;;
57155;SDS011;43023;59.928;10.682;2023-03-13T00:18:34;1.27;;;0.60;;
57155;SDS011;43023;59.928;10.682;2023-03-13T00:21:01;0.57;;;0.50;;
57155;SDS011;43023;59.928;10.682;2023-03-13T00:23:27;0.60;;;0.45;;
57155;SDS011;43023;59.928;10.682;2023-03-13T00:26:00;0.77;;;0.43;;
57155;SDS011;43023;59.928;10.682;2023-03-13T00:28:27;0.90;;;0.60;;
57155;SDS011;43023;59.928;10.682;2023-03-13T00:31:03;0.70;;;0.70;;
57155;SDS011;43023;59.928;10.682;2023-03-13T00:33:30;1.90;;;0.32;;
57155;SDS011;43023;59.928;10.682;2023-03-13T00:36:00;1.63;;;0.50;;
57155;SDS011;43023;59.928;10.682;2023-03-13T00:38:27;0.68;;;0.47;;
57155;SDS011;43023;59.928;10.682;2023-03-13T00:43:25;1.65;;;0.75;;
57155;SDS011;43023;59.928;10.682;2023-03-13T00:45:51;0.93;;;0.52;;
57155;SDS011;43023;59.928;10.682;2023-03-13T00:48:17;0.80;;;0.50;;
57155;SDS011;43023;59.928;10.682;2023-03-13T00:50:44;1.35;;;0.50;;
57155;SDS011;43023;59.928;10.682;2023-03-13T00:53:10;0.60;;;0.60;;
57155;SDS011;43023;59.928;10.682;2023-03-13T00:55:36;0.43;;;0.43;;
57155;SDS011;43023;59.928;10.682;2023-03-13T00:58:02;0.70;;;0.47;;
57155;SDS011;43023;59.928;10.682;2023-03-13T01:00:28;1.02;;;0.57;;
57155;SDS011;43023;59.928;10.682;2023-03-13T01:02:54;0.40;;;0.40;;
57155;SDS011;43023;59.928;10.682;2023-03-13T01:05:20;1.15;;;0.50;;
57155;SDS011;43023;59.928;10.682;2023-03-13T01:07:46;1.45;;;0.77;;
57155;SDS011;43023;59.928;10.682;2023-03-13T01:10:12;0.82;;;0.40;;
57155;SDS011;43023;59.928;10.682;2023-03-13T01:12:38;0.60;;;0.50;;
57155;SDS011;43023;59.928;10.682;2023-03-13T01:15:04;1.60;;;0.40;;
57155;SDS011;43023;59.928;10.682;2023-03-13T01:17:30;1.27;;;0.38;;
57155;SDS011;43023;59.928;10.682;2023-03-13T01:19:56;1.15;;;0.43;;
57155;SDS011;43023;59.928;10.682;2023-03-13T01:22:23;0.55;;;0.55;;
57155;SDS011;43023;59.928;10.682;2023-03-13T01:24:49;0.70;;;0.40;;
57155;SDS011;43023;59.928;10.682;2023-03-13T01:27:16;2.92;;;0.68;;
57155;SDS011;43023;59.928;10.682;2023-03-13T01:29:43;0.40;;;0.40;;
57155;SDS011;43023;59.928;10.682;2023-03-13T01:32:09;0.52;;;0.50;;
57155;SDS011;43023;59.928;10.682;2023-03-13T01:34:35;0.70;;;0.35;;
57155;SDS011;43023;59.928;10.682;2023-03-13T01:37:02;0.35;;;0.25;;
57155;SDS011;43023;59.928;10.682;2023-03-13T01:39:28;0.32;;;0.32;;
57155;SDS011;43023;59.928;10.682;2023-03-13T01:41:54;0.52;;;0.32;;
57155;SDS011;43023;59.928;10.682;2023-03-13T01:44:24;0.40;;;0.40;;
57155;SDS011;43023;59.928;10.682;2023-03-13T01:46:50;1.65;;;0.52;;
57155;SDS011;43023;59.928;10.682;2023-03-13T01:51:49;1.98;;;0.25;;
57155;SDS011;43023;59.928;10.682;2023-03-13T01:56:53;1.02;;;0.47;;
57155;SDS011;43023;59.928;10.682;2023-03-13T01:59:21;0.68;;;0.38;;
57155;SDS011;43023;59.928;10.682;2023-03-13T02:01:49;0.60;;;0.35;;
57155;SDS011;43023;59.928;10.682;2023-03-13T02:04:16;1.25;;;0.30;;
57155;SDS011;43023;59.928;10.682;2023-03-13T02:06:43;0.45;;;0.38;;
57155;SDS011;43023;59.928;10.682;2023-03-13T02:09:12;2.28;;;0.35;;
57155;SDS011;43023;59.928;10.682;2023-03-13T02:11:45;0.35;;;0.20;;
57155;SDS011;43023;59.928;10.682;2023-03-13T02:14:12;2.05;;;0.57;;
57155;SDS011;43023;59.928;10.682;2023-03-13T02:16:40;0.90;;;0.30;;
57155;SDS011;43023;59.928;10.682;2023-03-13T02:19:18;0.40;;;0.30;;
57155;SDS011;43023;59.928;10.682;2023-03-13T02:21:47;0.47;;;0.40;;
57155;SDS011;43023;59.928;10.682;2023-03-13T02:26:41;0.65;;;0.47;;
57155;SDS011;43023;59.928;10.682;2023-03-13T02:29:07;0.75;;;0.40;;
57155;SDS011;43023;59.928;10.682;2023-03-13T02:31:42;0.75;;;0.28;;
57155;SDS011;43023;59.928;10.682;2023-03-13T02:34:08;0.50;;;0.50;;
57155;SDS011;43023;59.928;10.682;2023-03-13T02:36:35;0.43;;;0.22;;
57155;SDS011;43023;59.928;10.682;2023-03-13T02:39:01;2.33;;;0.50;;
57155;SDS011;43023;59.928;10.682;2023-03-13T02:41:30;0.22;;;0.20;;
57155;SDS011;43023;59.928;10.682;2023-03-13T02:43:58;1.17;;;0.40;;
57155;SDS011;43023;59.928;10.682;2023-03-13T02:46:24;0.82;;;0.30;;
57155;SDS011;43023;59.928;10.682;2023-03-13T02:48:51;1.08;;;0.40;;
57155;SDS011;43023;59.928;10.682;2023-03-13T02:53:58;1.88;;;0.32;;
57155;SDS011;43023;59.928;10.682;2023-03-13T02:56:26;1.42;;;0.52;;
57155;SDS011;43023;59.928;10.682;2023-03-13T02:58:52;0.82;;;0.40;;
57155;SDS011;43023;59.928;10.682;2023-03-13T03:01:18;0.40;;;0.30;;
57155;SDS011;43023;59.928;10.682;2023-03-13T03:03:44;0.47;;;0.25;;
57155;SDS011;43023;59.928;10.682;2023-03-13T03:06:11;1.17;;;0.20;;
57155;SDS011;43023;59.928;10.682;2023-03-13T03:08:37;0.20;;;0.20;;
57155;SDS011;43023;59.928;10.682;2023-03-13T03:11:05;0.10;;;0.10;;
57155;SDS011;43023;59.928;10.682;2023-03-13T03:13:31;0.50;;;0.40;;
57155;SDS011;43023;59.928;10.682;2023-03-13T03:15:58;0.38;;;0.20;;
57155;SDS011;43023;59.928;10.682;2023-03-13T03:18:24;0.85;;;0.30;;
57155;SDS011;43023;59.928;10.682;2023-03-13T03:20:50;0.85;;;0.30;;
57155;SDS011;43023;59.928;10.682;2023-03-13T03:23:16;0.10;;;0.10;;
57155;SDS011;43023;59.928;10.682;2023-03-13T03:25:42;0.50;;;0.20;;
57155;SDS011;43023;59.928;10.682;2023-03-13T03:28:08;0.85;;;0.50;;
57155;SDS011;43023;59.928;10.682;2023-03-13T03:30:34;0.75;;;0.25;;
57155;SDS011;43023;59.928;10.682;2023-03-13T03:33:01;0.30;;;0.20;;
57155;SDS011;43023;59.928;10.682;2023-03-13T03:35:28;0.50;;;0.10;;
57155;SDS011;43023;59.928;10.682;2023-03-13T03:37:54;0.25;;;0.20;;
57155;SDS011;43023;59.928;10.682;2023-03-13T03:40:20;1.17;;;0.30;;
57155;SDS011;43023;59.928;10.682;2023-03-13T03:42:46;0.65;;;0.30;;
57155;SDS011;43023;59.928;10.682;2023-03-13T03:45:12;0.80;;;0.40;;
57155;SDS011;43023;59.928;10.682;2023-03-13T03:47:38;1.10;;;0.28;;
57155;SDS011;43023;59.928;10.682;2023-03-13T03:50:04;0.52;;;0.20;;
57155;SDS011;43023;59.928;10.682;2023-03-13T03:52:31;0.68;;;0.17;;
57155;SDS011;43023;59.928;10.682;2023-03-13T03:54:57;0.20;;;0.20;;
57155;SDS011;43023;59.928;10.682;2023-03-13T03:57:23;0.60;;;0.15;;
57155;SDS011;43023;59.928;10.682;2023-03-13T03:59:49;0.52;;;0.30;;
57155;SDS011;43023;59.928;10.682;2023-03-13T04:02:15;0.20;;;0.10;;
57155;SDS011;43023;59.928;10.682;2023-03-13T04:04:42;0.35;;;0.30;;
57155;SDS011;43023;59.928;10.682;2023-03-13T04:07:08;0.10;;;0.10;;
57155;SDS011;43023;59.928;10.682;2023-03-13T04:09:34;0.25;;;0.20;;
57155;SDS011;43023;59.928;10.682;2023-03-13T04:12:00;0.55;;;0.20;;
57155;SDS011;43023;59.928;10.682;2023-03-13T04:14:26;0.50;;;0.30;;
57155;SDS011;43023;59.928;10.682;2023-03-13T04:16:52;0.35;;;0.20;;
57155;SDS011;43023;59.928;10.682;2023-03-13T04:19:18;0.90;;;0.30;;
57155;SDS011;43023;59.928;10.682;2023-03-13T04:21:44;0.55;;;0.25;;
57155;SDS011;43023;59.928;10.682;2023-03-13T04:24:10;0.70;;;0.28;;
57155;SDS011;43023;59.928;10.682;2023-03-13T04:26:36;0.98;;;0.30;;
57155;SDS011;43023;59.928;10.682;2023-03-13T04:29:02;0.38;;;0.20;;
57155;SDS011;43023;59.928;10.682;2023-03-13T04:31:30;0.20;;;0.20;;
57155;SDS011;43023;59.928;10.682;2023-03-13T04:33:57;0.22;;;0.20;;
57155;SDS011;43023;59.928;10.682;2023-03-13T04:36:23;0.47;;;0.22;;
57155;SDS011;43023;59.928;10.682;2023-03-13T04:38:49;0.20;;;0.20;;
57155;SDS011;43023;59.928;10.682;2023-03-13T04:41:15;0.68;;;0.30;;
57155;SDS011;43023;59.928;10.682;2023-03-13T04:43:41;0.10;;;0.10;;
57155;SDS011;43023;59.928;10.682;2023-03-13T04:46:07;0.20;;;0.20;;
57155;SDS011;43023;59.928;10.682;2023-03-13T04:48:33;1.45;;;0.32;;
57155;SDS011;43023;59.928;10.682;2023-03-13T04:50:59;0.10;;;0.10;;
57155;SDS011;43023;59.928;10.682;2023-03-13T04:53:25;0.55;;;0.25;;
57155;SDS011;43023;59.928;10.682;2023-03-13T04:55:51;0.35;;;0.10;;
57155;SDS011;43023;59.928;10.682;2023-03-13T04:58:17;0.75;;;0.17;;
57155;SDS011;43023;59.928;10.682;2023-03-13T05:00:43;0.45;;;0.25;;
57155;SDS011;43023;59.928;10.682;2023-03-13T05:03:09;0.20;;;0.10;;
57155;SDS011;43023;59.928;10.682;2023-03-13T05:05:35;0.35;;;0.20;;
57155;SDS011;43023;59.928;10.682;2023-03-13T05:08:02;0.45;;;0.20;;
57155;SDS011;43023;59.928;10.682;2023-03-13T05:10:29;0.22;;;0.20;;
57155;SDS011;43023;59.928;10.682;2023-03-13T05:12:55;0.65;;;0.28;;
57155;SDS011;43023;59.928;10.682;2023-03-13T05:15:21;0.50;;;0.30;;
57155;SDS011;43023;59.928;10.682;2023-03-13T05:17:47;0.45;;;0.10;;
57155;SDS011;43023;59.928;10.682;2023-03-13T05:20:13;0.20;;;0.20;;
57155;SDS011;43023;59.928;10.682;2023-03-13T05:22:39;0.55;;;0.32;;
57155;SDS011;43023;59.928;10.682;2023-03-13T05:25:05;0.25;;;0.22;;
57155;SDS011;43023;59.928;10.682;2023-03-13T05:27:31;0.80;;;0.20;;
57155;SDS011;43023;59.928;10.682;2023-03-13T05:29:57;0.80;;;0.25;;
57155;SDS011;43023;59.928;10.682;2023-03-13T05:32:23;0.20;;;0.20;;
57155;SDS011;43023;59.928;10.682;2023-03-13T05:34:49;0.22;;;0.20;;
57155;SDS011;43023;59.928;10.682;2023-03-13T05:37:15;0.20;;;0.10;;
57155;SDS011;43023;59.928;10.682;2023-03-13T05:39:41;0.32;;;0.32;;
57155;SDS011;43023;59.928;10.682;2023-03-13T05:42:08;0.30;;;0.10;;
57155;SDS011;43023;59.928;10.682;2023-03-13T05:44:34;0.32;;;0.30;;
57155;SDS011;43023;59.928;10.682;2023-03-13T05:47:00;1.65;;;0.28;;
57155;SDS011;43023;59.928;10.682;2023-03-13T05:49:26;0.43;;;0.25;;
57155;SDS011;43023;59.928;10.682;2023-03-13T05:51:52;1.05;;;0.20;;
57155;SDS011;43023;59.928;10.682;2023-03-13T05:54:18;0.30;;;0.30;;
57155;SDS011;43023;59.928;10.682;2023-03-13T05:56:44;0.95;;;0.40;;
57155;SDS011;43023;59.928;10.682;2023-03-13T05:59:12;0.13;;;0.10;;
57155;SDS011;43023;59.928;10.682;2023-03-13T06:01:39;0.63;;;0.20;;
57155;SDS011;43023;59.928;10.682;2023-03-13T06:04:05;0.28;;;0.10;;
57155;SDS011;43023;59.928;10.682;2023-03-13T06:06:31;0.50;;;0.30;;
57155;SDS011;43023;59.928;10.682;2023-03-13T06:08:57;0.30;;;0.30;;
57155;SDS011;43023;59.928;10.682;2023-03-13T06:11:23;0.38;;;0.30;;
57155;SDS011;43023;59.928;10.682;2023-03-13T06:13:52;1.67;;;0.22;;
57155;SDS011;43023;59.928;10.682;2023-03-13T06:16:18;0.55;;;0.30;;
57155;SDS011;43023;59.928;10.682;2023-03-13T06:18:44;2.28;;;0.40;;
57155;SDS011;43023;59.928;10.682;2023-03-13T06:21:10;1.65;;;0.30;;
57155;SDS011;43023;59.928;10.682;2023-03-13T06:23:36;2.95;;;0.63;;
57155;SDS011;43023;59.928;10.682;2023-03-13T06:26:02;1.60;;;0.30;;
57155;SDS011;43023;59.928;10.682;2023-03-13T06:28:28;1.42;;;0.28;;
57155;SDS011;43023;59.928;10.682;2023-03-13T06:30:59;1.35;;;0.30;;
57155;SDS011;43023;59.928;10.682;2023-03-13T06:33:25;0.20;;;0.20;;
57155;SDS011;43023;59.928;10.682;2023-03-13T06:35:51;0.40;;;0.30;;
57155;SDS011;43023;59.928;10.682;2023-03-13T06:38:17;2.78;;;0.35;;
57155;SDS011;43023;59.928;10.682;2023-03-13T06:40:43;0.10;;;0.10;;
57155;SDS011;43023;59.928;10.682;2023-03-13T06:43:09;0.47;;;0.30;;
57155;SDS011;43023;59.928;10.682;2023-03-13T06:45:35;1.05;;;0.45;;
57155;SDS011;43023;59.928;10.682;2023-03-13T06:48:02;0.43;;;0.28;;
57155;SDS011;43023;59.928;10.682;2023-03-13T06:50:29;0.77;;;0.20;;
57155;SDS011;43023;59.928;10.682;2023-03-13T06:52:55;0.68;;;0.35;;
57155;SDS011;43023;59.928;10.682;2023-03-13T06:55:21;0.95;;;0.40;;
57155;SDS011;43023;59.928;10.682;2023-03-13T06:57:48;1.00;;;0.30;;
57155;SDS011;43023;59.928;10.682;2023-03-13T07:00:15;0.77;;;0.38;;
57155;SDS011;43023;59.928;10.682;2023-03-13T07:02:41;0.40;;;0.30;;
57155;SDS011;43023;59.928;10.682;2023-03-13T07:05:07;0.30;;;0.20;;
57155;SDS011;43023;59.928;10.682;2023-03-13T07:07:33;0.95;;;0.20;;
57155;SDS011;43023;59.928;10.682;2023-03-13T07:09:59;1.58;;;0.30;;
57155;SDS011;43023;59.928;10.682;2023-03-13T07:12:25;0.25;;;0.25;;
57155;SDS011;43023;59.928;10.682;2023-03-13T07:14:52;3.30;;;0.55;;
57155;SDS011;43023;59.928;10.682;2023-03-13T07:17:18;0.85;;;0.40;;
57155;SDS011;43023;59.928;10.682;2023-03-13T07:19:44;0.85;;;0.35;;
57155;SDS011;43023;59.928;10.682;2023-03-13T07:22:10;0.85;;;0.30;;
57155;SDS011;43023;59.928;10.682;2023-03-13T07:24:36;2.55;;;0.30;;
57155;SDS011;43023;59.928;10.682;2023-03-13T07:27:02;1.20;;;0.40;;
57155;SDS011;43023;59.928;10.682;2023-03-13T07:29:28;7.13;;;0.70;;
57155;SDS011;43023;59.928;10.682;2023-03-13T07:31:54;1.45;;;0.68;;
57155;SDS011;43023;59.928;10.682;2023-03-13T07:34:20;1.05;;;0.57;;
57155;SDS011;43023;59.928;10.682;2023-03-13T07:36:46;1.58;;;0.70;;
57155;SDS011;43023;59.928;10.682;2023-03-13T07:39:12;1.75;;;0.63;;
57155;SDS011;43023;59.928;10.682;2023-03-13T07:41:38;3.00;;;0.70;;
57155;SDS011;43023;59.928;10.682;2023-03-13T07:44:04;2.03;;;1.00;;
57155;SDS011;43023;59.928;10.682;2023-03-13T07:46:30;3.70;;;0.85;;
57155;SDS011;43023;59.928;10.682;2023-03-13T07:48:57;1.38;;;0.85;;
57155;SDS011;43023;59.928;10.682;2023-03-13T07:51:23;2.63;;;0.82;;
57155;SDS011;43023;59.928;10.682;2023-03-13T07:53:50;2.00;;;0.75;;
57155;SDS011;43023;59.928;10.682;2023-03-13T07:56:17;1.42;;;0.75;;
57155;SDS011;43023;59.928;10.682;2023-03-13T07:58:43;4.22;;;0.98;;
57155;SDS011;43023;59.928;10.682;2023-03-13T08:01:23;1.17;;;0.70;;
57155;SDS011;43023;59.928;10.682;2023-03-13T08:03:50;3.80;;;1.85;;
57155;SDS011;43023;59.928;10.682;2023-03-13T08:06:17;1.13;;;0.70;;
57155;SDS011;43023;59.928;10.682;2023-03-13T08:08:44;2.60;;;1.00;;
57155;SDS011;43023;59.928;10.682;2023-03-13T08:11:12;1.88;;;0.80;;
57155;SDS011;43023;59.928;10.682;2023-03-13T08:13:39;1.48;;;0.77;;
57155;SDS011;43023;59.928;10.682;2023-03-13T08:16:07;2.10;;;1.08;;
57155;SDS011;43023;59.928;10.682;2023-03-13T08:18:33;1.30;;;0.90;;
57155;SDS011;43023;59.928;10.682;2023-03-13T08:21:07;0.80;;;0.63;;
57155;SDS011;43023;59.928;10.682;2023-03-13T08:23:34;1.48;;;0.82;;
57155;SDS011;43023;59.928;10.682;2023-03-13T08:26:10;1.92;;;0.63;;
57155;SDS011;43023;59.928;10.682;2023-03-13T08:28:37;1.25;;;0.90;;
57155;SDS011;43023;59.928;10.682;2023-03-13T08:33:36;1.42;;;0.98;;
57155;SDS011;43023;59.928;10.682;2023-03-13T08:36:12;3.42;;;0.98;;
57155;SDS011;43023;59.928;10.682;2023-03-13T08:38:38;1.30;;;0.60;;
57155;SDS011;43023;59.928;10.682;2023-03-13T08:41:06;1.00;;;0.52;;
57155;SDS011;43023;59.928;10.682;2023-03-13T08:43:33;1.08;;;0.65;;
57155;SDS011;43023;59.928;10.682;2023-03-13T08:45:59;3.05;;;0.60;;
57155;SDS011;43023;59.928;10.682;2023-03-13T08:48:25;1.15;;;0.70;;
57155;SDS011;43023;59.928;10.682;2023-03-13T08:51:13;1.05;;;0.50;;
57155;SDS011;43023;59.928;10.682;2023-03-13T08:53:40;0.80;;;0.52;;
57155;SDS011;43023;59.928;10.682;2023-03-13T08:56:07;2.78;;;0.60;;
57155;SDS011;43023;59.928;10.682;2023-03-13T08:58:34;0.57;;;0.57;;
57155;SDS011;43023;59.928;10.682;2023-03-13T09:01:01;2.03;;;0.70;;
57155;SDS011;43023;59.928;10.682;2023-03-13T09:03:27;1.15;;;0.57;;
57155;SDS011;43023;59.928;10.682;2023-03-13T09:05:55;0.45;;;0.43;;
57155;SDS011;43023;59.928;10.682;2023-03-13T09:08:21;1.25;;;0.50;;
57155;SDS011;43023;59.928;10.682;2023-03-13T09:10:47;0.60;;;0.50;;
57155;SDS011;43023;59.928;10.682;2023-03-13T09:13:19;0.73;;;0.50;;
57155;SDS011;43023;59.928;10.682;2023-03-13T09:15:52;0.80;;;0.55;;
57155;SDS011;43023;59.928;10.682;2023-03-13T09:18:18;1.70;;;0.60;;
57155;SDS011;43023;59.928;10.682;2023-03-13T09:20:44;0.73;;;0.52;;
57155;SDS011;43023;59.928;10.682;2023-03-13T09:23:10;2.03;;;0.40;;
57155;SDS011;43023;59.928;10.682;2023-03-13T09:25:37;2.58;;;0.60;;
57155;SDS011;43023;59.928;10.682;2023-03-13T09:28:03;1.00;;;0.60;;
57155;SDS011;43023;59.928;10.682;2023-03-13T09:30:29;0.43;;;0.35;;
57155;SDS011;43023;59.928;10.682;2023-03-13T09:32:55;1.25;;;0.40;;
57155;SDS011;43023;59.928;10.682;2023-03-13T09:35:21;0.50;;;0.50;;
57155;SDS011;43023;59.928;10.682;2023-03-13T09:37:47;2.25;;;0.30;;
57155;SDS011;43023;59.928;10.682;2023-03-13T09:40:14;0.40;;;0.40;;
57155;SDS011;43023;59.928;10.682;2023-03-13T09:42:45;0.30;;;0.30;;
57155;SDS011;43023;59.928;10.682;2023-03-13T09:45:18;0.30;;;0.30;;
57155;SDS011;43023;59.928;10.682;2023-03-13T09:47:51;0.82;;;0.40;;
57155;SDS011;43023;59.928;10.682;2023-03-13T09:52:45;1.25;;;0.50;;
57155;SDS011;43023;59.928;10.682;2023-03-13T10:00:16;0.57;;;0.45;;
57155;SDS011;43023;59.928;10.682;2023-03-13T10:02:53;1.48;;;0.52;;
57155;SDS011;43023;59.928;10.682;2023-03-13T10:05:21;0.52;;;0.40;;
57155;SDS011;43023;59.928;10.682;2023-03-13T10:07:47;0.93;;;0.60;;
57155;SDS011;43023;59.928;10.682;2023-03-13T10:10:27;1.17;;;0.40;;
57155;SDS011;43023;59.928;10.682;2023-03-13T10:12:56;1.15;;;0.40;;
57155;SDS011;43023;59.928;10.682;2023-03-13T10:15:35;1.58;;;0.28;;
57155;SDS011;43023;59.928;10.682;2023-03-13T10:18:13;0.50;;;0.50;;
57155;SDS011;43023;59.928;10.682;2023-03-13T10:20:40;0.93;;;0.40;;
57155;SDS011;43023;59.928;10.682;2023-03-13T10:23:21;1.08;;;0.20;;
57155;SDS011;43023;59.928;10.682;2023-03-13T10:25:51;0.68;;;0.30;;
57155;SDS011;43023;59.928;10.682;2023-03-13T10:28:17;0.75;;;0.40;;
57155;SDS011;43023;59.928;10.682;2023-03-13T10:30:48;1.10;;;0.50;;
57155;SDS011;43023;59.928;10.682;2023-03-13T10:33:21;0.20;;;0.20;;
57155;SDS011;43023;59.928;10.682;2023-03-13T10:35:58;2.20;;;0.40;;
57155;SDS011;43023;59.928;10.682;2023-03-13T10:38:24;0.22;;;0.20;;
57155;SDS011;43023;59.928;10.682;2023-03-13T10:40:57;0.30;;;0.30;;
57155;SDS011;43023;59.928;10.682;2023-03-13T10:43:24;0.77;;;0.37;;
57155;SDS011;43023;59.928;10.682;2023-03-13T10:45:50;1.17;;;0.50;;
57155;SDS011;43023;59.928;10.682;2023-03-13T10:48:28;1.05;;;0.57;;
57155;SDS011;43023;59.928;10.682;2023-03-13T10:50:55;2.05;;;0.60;;
57155;SDS011;43023;59.928;10.682;2023-03-13T10:53:23;0.60;;;0.40;;
57155;SDS011;43023;59.928;10.682;2023-03-13T10:56:09;0.68;;;0.40;;
57155;SDS011;43023;59.928;10.682;2023-03-13T10:58:43;0.68;;;0.68;;
57155;SDS011;43023;59.928;10.682;2023-03-13T11:03:35;0.30;;;0.30;;
57155;SDS011;43023;59.928;10.682;2023-03-13T11:06:02;1.67;;;0.50;;
57155;SDS011;43023;59.928;10.682;2023-03-13T11:08:35;1.02;;;0.38;;
57155;SDS011;43023;59.928;10.682;2023-03-13T11:11:02;1.40;;;0.40;;
57155;SDS011;43023;59.928;10.682;2023-03-13T11:13:38;2.20;;;0.32;;
57155;SDS011;43023;59.928;10.682;2023-03-13T11:18:50;2.38;;;0.80;;
57155;SDS011;43023;59.928;10.682;2023-03-13T11:21:20;0.75;;;0.30;;
57155;SDS011;43023;59.928;10.682;2023-03-13T11:23:57;0.60;;;0.50;;
57155;SDS011;43023;59.928;10.682;2023-03-13T11:27:03;1.92;;;0.40;;
57155;SDS011;43023;59.928;10.682;2023-03-13T11:29:30;2.10;;;0.47;;
57155;SDS011;43023;59.928;10.682;2023-03-13T11:32:01;1.25;;;0.73;;
57155;SDS011;43023;59.928;10.682;2023-03-13T11:34:34;0.43;;;0.40;;
57155;SDS011;43023;59.928;10.682;2023-03-13T11:37:11;1.13;;;0.47;;
57155;SDS011;43023;59.928;10.682;2023-03-13T11:52:51;0.65;;;0.20;;
57155;SDS011;43023;59.928;10.682;2023-03-13T11:55:23;1.38;;;0.30;;
57155;SDS011;43023;59.928;10.682;2023-03-13T12:00:32;0.20;;;0.20;;
57155;SDS011;43023;59.928;10.682;2023-03-13T12:03:10;0.98;;;0.40;;
57155;SDS011;43023;59.928;10.682;2023-03-13T12:05:52;1.30;;;0.30;;
57155;SDS011;43023;59.928;10.682;2023-03-13T12:08:19;1.95;;;0.20;;
57155;SDS011;43023;59.928;10.682;2023-03-13T12:10:56;0.20;;;0.20;;
57155;SDS011;43023;59.928;10.682;2023-03-13T12:13:28;0.93;;;0.40;;
57155;SDS011;43023;59.928;10.682;2023-03-13T12:15:57;0.63;;;0.40;;
57155;SDS011;43023;59.928;10.682;2023-03-13T12:18:46;1.48;;;0.35;;
57155;SDS011;43023;59.928;10.682;2023-03-13T12:26:05;0.75;;;0.22;;
57155;SDS011;43023;59.928;10.682;2023-03-13T12:28:34;0.65;;;0.30;;
57155;SDS011;43023;59.928;10.682;2023-03-13T12:36:34;0.28;;;0.28;;
57155;SDS011;43023;59.928;10.682;2023-03-13T12:41:35;0.20;;;0.20;;
57155;SDS011;43023;59.928;10.682;2023-03-13T12:44:06;0.25;;;0.10;;
57155;SDS011;43023;59.928;10.682;2023-03-13T12:46:38;0.60;;;0.10;;
57155;SDS011;43023;59.928;10.682;2023-03-13T12:59:46;1.55;;;0.20;;
57155;SDS011;43023;59.928;10.682;2023-03-13T13:04:46;4.70;;;0.60;;
57155;SDS011;43023;59.928;10.682;2023-03-13T13:07:26;0.82;;;0.20;;
57155;SDS011;43023;59.928;10.682;2023-03-13T13:10:01;0.35;;;0.15;;
57155;SDS011;43023;59.928;10.682;2023-03-13T13:12:27;0.50;;;0.25;;
57155;SDS011;43023;59.928;10.682;2023-03-13T13:14:55;0.28;;;0.22;;
57155;SDS011;43023;59.928;10.682;2023-03-13T13:19:51;0.77;;;0.40;;
57155;SDS011;43023;59.928;10.682;2023-03-13T13:29:53;0.05;;;0.05;;
57155;SDS011;43023;59.928;10.682;2023-03-13T13:32:34;0.20;;;0.10;;
57155;SDS011;43023;59.928;10.682;2023-03-13T13:35:02;0.10;;;0.10;;
57155;SDS011;43023;59.928;10.682;2023-03-13T13:37:30;0.10;;;0.10;;
57155;SDS011;43023;59.928;10.682;2023-03-13T13:42:52;0.20;;;0.20;;
57155;SDS011;43023;59.928;10.682;2023-03-13T13:45:25;0.25;;;0.25;;
57155;SDS011;43023;59.928;10.682;2023-03-13T13:50:37;0.20;;;0.20;;
57155;SDS011;43023;59.928;10.682;2023-03-13T13:55:47;1.73;;;0.15;;
57155;SDS011;43023;59.928;10.682;2023-03-13T13:58:18;0.10;;;0.10;;
57155;SDS011;43023;59.928;10.682;2023-03-13T14:03:23;0.55;;;0.25;;
57155;SDS011;43023;59.928;10.682;2023-03-13T14:05:56;0.20;;;0.20;;
57155;SDS011;43023;59.928;10.682;2023-03-13T14:08:26;0.10;;;0.10;;
57155;SDS011;43023;59.928;10.682;2023-03-13T14:11:04;0.30;;;0.20;;
57155;SDS011;43023;59.928;10.682;2023-03-13T14:13:32;0.55;;;0.25;;
57155;SDS011;43023;59.928;10.682;2023-03-13T14:16:08;0.10;;;0.10;;
57155;SDS011;43023;59.928;10.682;2023-03-13T14:18:35;0.50;;;0.10;;
57155;SDS011;43023;59.928;10.682;2023-03-13T14:21:07;3.03;;;0.40;;
57155;SDS011;43023;59.928;10.682;2023-03-13T14:23:38;0.38;;;0.10;;
57155;SDS011;43023;59.928;10.682;2023-03-13T14:26:27;0.20;;;0.20;;
57155;SDS011;43023;59.928;10.682;2023-03-13T14:28:55;1.73;;;0.22;;
57155;SDS011;43023;59.928;10.682;2023-03-13T14:33:54;0.50;;;0.20;;
57155;SDS011;43023;59.928;10.682;2023-03-13T14:36:20;0.98;;;0.30;;
57155;SDS011;43023;59.928;10.682;2023-03-13T14:38:57;2.22;;;0.20;;
57155;SDS011;43023;59.928;10.682;2023-03-13T14:41:26;2.67;;;0.20;;
57155;SDS011;43023;59.928;10.682;2023-03-13T14:43:53;3.83;;;0.30;;
57155;SDS011;43023;59.928;10.682;2023-03-13T14:48:52;0.82;;;0.17;;
57155;SDS011;43023;59.928;10.682;2023-03-13T14:51:20;2.53;;;0.30;;
57155;SDS011;43023;59.928;10.682;2023-03-13T14:53:57;0.45;;;0.32;;
57155;SDS011;43023;59.928;10.682;2023-03-13T14:59:04;1.52;;;0.20;;
57155;SDS011;43023;59.928;10.682;2023-03-13T15:01:31;2.42;;;0.20;;
57155;SDS011;43023;59.928;10.682;2023-03-13T15:03:58;2.85;;;0.30;;
57155;SDS011;43023;59.928;10.682;2023-03-13T15:06:24;2.38;;;0.30;;
57155;SDS011;43023;59.928;10.682;2023-03-13T15:09:12;1.13;;;0.10;;
57155;SDS011;43023;59.928;10.682;2023-03-13T15:11:58;3.50;;;0.40;;
57155;SDS011;43023;59.928;10.682;2023-03-13T15:14:38;0.10;;;0.10;;
57155;SDS011;43023;59.928;10.682;2023-03-13T15:17:17;1.92;;;0.40;;
57155;SDS011;43023;59.928;10.682;2023-03-13T15:19:48;0.55;;;0.30;;
57155;SDS011;43023;59.928;10.682;2023-03-13T15:22:15;1.55;;;0.28;;
57155;SDS011;43023;59.928;10.682;2023-03-13T15:24:42;2.05;;;0.20;;
57155;SDS011;43023;59.928;10.682;2023-03-13T15:27:15;1.02;;;0.28;;
57155;SDS011;43023;59.928;10.682;2023-03-13T15:29:42;2.35;;;0.15;;
57155;SDS011;43023;59.928;10.682;2023-03-13T15:32:10;4.25;;;0.50;;
57155;SDS011;43023;59.928;10.682;2023-03-13T15:34:38;2.97;;;0.22;;
57155;SDS011;43023;59.928;10.682;2023-03-13T15:37:04;0.47;;;0.10;;
57155;SDS011;43023;59.928;10.682;2023-03-13T15:39:30;0.60;;;0.13;;
57155;SDS011;43023;59.928;10.682;2023-03-13T15:41:56;2.70;;;0.38;;
57155;SDS011;43023;59.928;10.682;2023-03-13T15:44:23;0.65;;;0.15;;
57155;SDS011;43023;59.928;10.682;2023-03-13T15:46:49;1.95;;;0.20;;
57155;SDS011;43023;59.928;10.682;2023-03-13T15:49:15;2.92;;;0.20;;
57155;SDS011;43023;59.928;10.682;2023-03-13T15:51:41;3.10;;;0.20;;
57155;SDS011;43023;59.928;10.682;2023-03-13T15:54:07;0.20;;;0.10;;
57155;SDS011;43023;59.928;10.682;2023-03-13T15:56:33;1.92;;;0.10;;
57155;SDS011;43023;59.928;10.682;2023-03-13T15:59:01;0.32;;;0.28;;
57155;SDS011;43023;59.928;10.682;2023-03-13T16:01:27;0.20;;;0.10;;
57155;SDS011;43023;59.928;10.682;2023-03-13T16:03:53;0.65;;;0.20;;
57155;SDS011;43023;59.928;10.682;2023-03-13T16:06:20;5.18;;;0.30;;
57155;SDS011;43023;59.928;10.682;2023-03-13T16:08:54;1.92;;;0.15;;
57155;SDS011;43023;59.928;10.682;2023-03-13T16:11:20;2.95;;;0.40;;
57155;SDS011;43023;59.928;10.682;2023-03-13T16:13:48;2.75;;;0.20;;
57155;SDS011;43023;59.928;10.682;2023-03-13T16:16:21;1.85;;;0.20;;
57155;SDS011;43023;59.928;10.682;2023-03-13T16:18:49;1.80;;;0.35;;